Time;durP1;ratioP1;P1;durP2;ratioP2;P2;SDS_P1;SDS_P2;PMS_P1;PMS_P2;Temp;Humidity;BMP_temperature;BMP_pressure;BME280_temperature;BME280_humidity;BME280_pressure;Samples;Min_cycle;Max_cycle;Signal;HPM_P1;HPM_P2
2023/01/10 00:00:52;;;;;;;0.00;0.00;;;7.00;99.90;;;;;;5024557;28;20033;-73
2023/01/10 00:03:20;;;;;;;0.00;0.00;;;7.00;99.90;;;;;;5021184;28;20487;-74
2023/01/10 00:05:47;;;;;;;0.00;0.00;;;7.00;99.90;;;;;;5025921;28;20021;-72
2023/01/10 00:08:16;;;;;;;0.00;0.00;;;7.00;99.90;;;;;;5029998;28;20029;-73
2023/01/10 00:10:43;;;;;;;0.00;0.00;;;7.00;99.90;;;;;;5014304;28;20046;-73
2023/01/10 00:13:22;;;;;;;;;;;7.00;99.90;;;;;;5022895;28;20638;-72
2023/01/10 00:15:48;;;;;;;0.00;0.00;;;7.00;99.90;;;;;;5019979;28;19905;-72
2023/01/10 00:18:15;;;;;;;0.00;0.00;;;7.00;99.90;;;;;;5023469;28;20788;-72
2023/01/10 00:20:40;;;;;;;;;;;7.00;99.90;;;;;;5018352;28;21036;-73
2023/01/10 00:23:07;;;;;;;0.00;0.00;;;7.00;99.90;;;;;;5026970;28;19955;-73
2023/01/10 00:25:34;;;;;;;;;;;7.00;99.90;;;;;;5023397;28;20399;-73
2023/01/10 00:28:33;;;;;;;0.00;0.00;;;7.00;99.90;;;;;;5030424;28;19915;-73
2023/01/10 00:31:15;;;;;;;0.00;0.00;;;7.00;99.90;;;;;;5026683;28;20025;-73
2023/01/10 00:33:40;;;;;;;;;;;7.00;99.90;;;;;;5020779;28;20379;-73
2023/01/10 00:36:07;;;;;;;0.00;0.00;;;7.10;99.90;;;;;;5018342;28;19916;-73
2023/01/10 00:38:33;;;;;;;0.00;0.00;;;7.00;99.90;;;;;;5022482;28;20040;-73
2023/01/10 00:41:00;;;;;;;;;;;7.10;99.90;;;;;;5016089;28;20613;-72
2023/01/10 00:46:13;;;;;;;0.20;0.20;;;7.00;99.90;;;;;;5022664;28;20553;-73
2023/01/10 00:48:39;;;;;;;0.00;0.00;;;7.00;99.90;;;;;;5016784;28;20031;-73
2023/01/10 00:51:05;;;;;;;0.00;0.00;;;7.00;99.90;;;;;;5012840;28;20021;-73
2023/01/10 00:53:31;;;;;;;0.00;0.00;;;7.00;99.90;;;;;;5017689;28;20036;-73
2023/01/10 00:55:56;;;;;;;0.00;0.00;;;7.00;99.90;;;;;;5021017;28;20555;-72
2023/01/10 00:58:22;;;;;;;0.00;0.00;;;7.00;99.90;;;;;;5027829;28;20402;-73
2023/01/10 01:00:49;;;;;;;0.00;0.00;;;7.00;99.90;;;;;;5022143;28;20390;-73
2023/01/10 01:03:18;;;;;;;0.00;0.00;;;7.00;99.90;;;;;;5020894;28;20599;-73
2023/01/10 01:05:44;;;;;;;0.00;0.00;;;7.00;99.90;;;;;;5019270;28;20009;-72
2023/01/10 01:08:13;;;;;;;0.00;0.00;;;7.00;99.90;;;;;;5021246;28;20118;-73
2023/01/10 01:10:39;;;;;;;0.00;0.00;;;7.00;99.90;;;;;;5018964;28;20036;-73
2023/01/10 01:13:16;;;;;;;0.00;0.00;;;7.00;99.90;;;;;;5020080;28;20029;-73
2023/01/10 01:15:44;;;;;;;0.00;0.00;;;7.00;99.90;;;;;;5020958;28;20021;-72
2023/01/10 01:18:19;;;;;;;0.00;0.00;;;7.00;99.90;;;;;;5026300;28;20042;-72
2023/01/10 01:20:47;;;;;;;0.00;0.00;;;7.00;99.90;;;;;;5026199;28;20076;-73
2023/01/10 01:23:14;;;;;;;0.00;0.00;;;7.00;99.90;;;;;;5025052;28;20048;-73
2023/01/10 01:25:41;;;;;;;0.00;0.00;;;7.00;99.90;;;;;;5022100;28;20889;-73
2023/01/10 01:28:11;;;;;;;0.00;0.00;;;6.90;99.90;;;;;;5021025;28;20056;-72
2023/01/10 01:30:37;;;;;;;0.00;0.00;;;6.90;99.90;;;;;;5018355;28;20629;-73
2023/01/10 01:33:04;;;;;;;0.00;0.00;;;6.90;99.90;;;;;;5021413;28;20021;-72
2023/01/10 01:35:32;;;;;;;0.00;0.00;;;6.80;99.90;;;;;;5021046;28;20022;-73
2023/01/10 01:37:58;;;;;;;0.00;0.00;;;6.80;99.90;;;;;;5020001;28;20082;-73
2023/01/10 01:40:23;;;;;;;0.00;0.00;;;6.80;99.90;;;;;;5025222;28;20029;-73
2023/01/10 01:42:54;;;;;;;0.00;0.00;;;6.80;99.90;;;;;;5021204;28;20025;-73
2023/01/10 01:45:22;;;;;;;0.00;0.00;;;6.80;99.90;;;;;;5021938;28;20021;-73
2023/01/10 01:47:54;;;;;;;0.00;0.00;;;6.80;99.90;;;;;;5033889;28;20870;-73
2023/01/10 01:50:34;;;;;;;0.00;0.00;;;6.70;99.90;;;;;;5023459;28;20033;-73
2023/01/10 01:53:05;;;;;;;0.00;0.00;;;6.70;99.90;;;;;;5019125;28;20017;-73
2023/01/10 01:55:34;;;;;;;0.00;0.00;;;6.70;99.90;;;;;;5020150;28;20041;-73
2023/01/10 01:58:03;;;;;;;0.00;0.00;;;6.70;99.90;;;;;;5023256;28;20025;-73
2023/01/10 02:00:29;;;;;;;0.00;0.00;;;6.70;99.90;;;;;;5017123;28;20083;-73
2023/01/10 02:02:58;;;;;;;0.00;0.00;;;6.70;99.90;;;;;;5026000;28;20022;-73
2023/01/10 02:05:25;;;;;;;0.00;0.00;;;6.70;99.90;;;;;;5029355;28;20376;-72
2023/01/10 02:07:55;;;;;;;0.00;0.00;;;6.70;99.90;;;;;;5020507;28;20112;-72
2023/01/10 02:10:43;;;;;;;0.00;0.00;;;6.80;99.90;;;;;;5024337;28;20105;-73
2023/01/10 02:13:13;;;;;;;0.00;0.00;;;6.80;99.90;;;;;;5034896;28;20071;-73
2023/01/10 02:15:38;;;;;;;0.00;0.00;;;6.80;99.90;;;;;;5024311;28;20033;-73
2023/01/10 02:18:05;;;;;;;0.00;0.00;;;6.80;99.90;;;;;;5021104;28;20014;-73
2023/01/10 02:20:56;;;;;;;0.00;0.00;;;6.80;99.90;;;;;;5023123;28;20167;-73
2023/01/10 02:23:55;;;;;;;0.00;0.00;;;6.80;99.90;;;;;;5020268;28;20025;-73
2023/01/10 02:26:23;;;;;;;0.00;0.00;;;6.80;99.90;;;;;;5015128;28;21020;-74
2023/01/10 02:29:07;;;;;;;0.00;0.00;;;6.80;99.90;;;;;;5024504;28;20029;-73
2023/01/10 02:31:56;;;;;;;0.00;0.00;;;6.80;99.90;;;;;;5023725;28;20017;-73
2023/01/10 02:34:27;;;;;;;0.00;0.00;;;6.80;99.90;;;;;;5017597;28;20110;-72
2023/01/10 02:37:11;;;;;;;0.00;0.00;;;6.80;99.90;;;;;;5018168;28;20024;-73
2023/01/10 02:39:49;;;;;;;0.00;0.00;;;6.90;99.90;;;;;;5024858;28;20036;-73
2023/01/10 02:42:26;;;;;;;0.00;0.00;;;6.80;99.90;;;;;;5023823;28;20021;-73
2023/01/10 02:45:13;;;;;;;0.00;0.00;;;6.80;99.90;;;;;;5027942;28;20474;-73
2023/01/10 02:47:41;;;;;;;0.00;0.00;;;6.80;99.90;;;;;;5024350;28;20037;-73
2023/01/10 02:50:28;;;;;;;0.00;0.00;;;6.80;99.90;;;;;;5025394;28;20100;-73
2023/01/10 02:52:58;;;;;;;0.00;0.00;;;6.80;99.90;;;;;;5029810;28;20100;-72
2023/01/10 02:55:48;;;;;;;0.00;0.00;;;6.80;99.90;;;;;;5014826;28;20033;-72
2023/01/10 02:58:26;;;;;;;0.00;0.00;;;6.80;99.90;;;;;;5022111;28;20094;-73
2023/01/10 03:01:24;;;;;;;0.00;0.00;;;6.80;99.90;;;;;;5022141;28;20079;-72
2023/01/10 03:04:28;;;;;;;0.00;0.00;;;6.80;99.90;;;;;;4988872;28;20038;-73
2023/01/10 03:07:07;;;;;;;0.00;0.00;;;6.70;99.90;;;;;;5022346;28;20033;-73
2023/01/10 03:10:06;;;;;;;0.00;0.00;;;6.70;99.90;;;;;;5026359;28;20083;-73
2023/01/10 03:12:40;;;;;;;0.00;0.00;;;6.70;99.90;;;;;;5019266;28;20544;-72
2023/01/10 03:15:09;;;;;;;0.00;0.00;;;6.70;99.90;;;;;;5030931;28;20080;-73
2023/01/10 03:17:38;;;;;;;0.00;0.00;;;6.70;99.90;;;;;;5027153;28;20021;-73
2023/01/10 03:20:06;;;;;;;0.00;0.00;;;6.70;99.90;;;;;;5022318;28;20028;-73
2023/01/10 03:22:36;;;;;;;0.00;0.00;;;6.60;99.90;;;;;;5022263;28;20013;-73
2023/01/10 03:25:06;;;;;;;0.00;0.00;;;6.60;99.90;;;;;;5018041;28;20029;-72
2023/01/10 03:27:54;;;;;;;0.00;0.00;;;6.60;99.90;;;;;;5026974;28;20521;-73
2023/01/10 03:30:30;;;;;;;0.00;0.00;;;6.60;99.90;;;;;;5026514;28;20093;-73
2023/01/10 03:32:58;;;;;;;0.00;0.00;;;6.60;99.90;;;;;;5029250;28;20030;-73
2023/01/10 03:35:39;;;;;;;0.00;0.00;;;6.50;99.90;;;;;;5021420;28;20018;-73
2023/01/10 03:38:12;;;;;;;0.00;0.00;;;6.50;99.90;;;;;;5018085;28;20455;-73
2023/01/10 03:40:58;;;;;;;0.00;0.00;;;6.50;99.90;;;;;;5022663;28;20068;-73
2023/01/10 03:46:48;;;;;;;0.00;0.00;;;6.50;99.90;;;;;;5025332;28;20027;-73
2023/01/10 03:49:16;;;;;;;0.00;0.00;;;6.50;99.90;;;;;;5041293;28;20029;-73
2023/01/10 03:51:43;;;;;;;0.00;0.00;;;6.50;99.90;;;;;;5020337;28;20025;-73
2023/01/10 03:54:13;;;;;;;0.00;0.00;;;6.50;99.90;;;;;;5024172;28;20037;-73
2023/01/10 03:56:50;;;;;;;0.00;0.00;;;6.50;99.90;;;;;;5021389;28;20475;-72
2023/01/10 03:59:30;;;;;;;0.00;0.00;;;6.40;99.90;;;;;;5025143;28;20032;-72
2023/01/10 04:01:56;;;;;;;0.00;0.00;;;6.40;99.90;;;;;;5029287;28;20025;-73
2023/01/10 04:04:22;;;;;;;0.00;0.00;;;6.40;99.90;;;;;;5024012;28;20025;-73
2023/01/10 04:06:48;;;;;;;0.00;0.00;;;6.40;99.90;;;;;;5021762;28;20784;-72
2023/01/10 04:09:13;;;;;;;0.00;0.00;;;6.40;99.90;;;;;;5016528;28;20495;-73
2023/01/10 04:11:39;;;;;;;0.00;0.00;;;6.40;99.90;;;;;;5025394;28;20033;-72
2023/01/10 04:14:05;;;;;;;0.00;0.00;;;6.40;99.90;;;;;;5020363;28;20367;-72
2023/01/10 04:16:30;;;;;;;0.00;0.00;;;6.40;99.90;;;;;;5023594;28;20615;-73
2023/01/10 04:19:00;;;;;;;0.00;0.00;;;6.30;99.90;;;;;;5023082;28;20112;-73
2023/01/10 04:21:27;;;;;;;0.00;0.00;;;6.30;99.90;;;;;;5013287;28;20014;-73
2023/01/10 04:23:52;;;;;;;0.00;0.00;;;6.30;99.90;;;;;;5013066;28;20752;-72
2023/01/10 04:26:18;;;;;;;0.00;0.00;;;6.30;99.90;;;;;;5020802;28;20038;-73
2023/01/10 04:28:44;;;;;;;0.00;0.00;;;6.30;99.90;;;;;;5022908;28;20028;-73
2023/01/10 04:31:09;;;;;;;0.00;0.00;;;6.30;99.90;;;;;;5019240;28;20032;-73
2023/01/10 04:33:37;;;;;;;0.00;0.00;;;6.30;99.90;;;;;;5021235;28;20021;-72
2023/01/10 04:36:03;;;;;;;0.00;0.00;;;6.30;99.90;;;;;;5028639;28;20039;-73
2023/01/10 04:38:29;;;;;;;0.00;0.00;;;6.30;99.90;;;;;;5022217;28;20041;-73
2023/01/10 04:40:56;;;;;;;0.00;0.00;;;6.30;99.90;;;;;;5013602;28;20069;-72
2023/01/10 04:43:23;;;;;;;0.00;0.00;;;6.20;99.90;;;;;;5023481;28;20048;-73
2023/01/10 04:45:50;;;;;;;0.00;0.00;;;6.20;99.90;;;;;;5019142;28;20018;-73
2023/01/10 04:48:18;;;;;;;0.00;0.00;;;6.20;99.90;;;;;;5020292;28;20045;-73
2023/01/10 04:50:50;;;;;;;0.00;0.00;;;6.20;99.90;;;;;;5021478;28;20021;-72
2023/01/10 04:53:16;;;;;;;0.00;0.00;;;6.20;99.90;;;;;;5024947;28;20025;-73
2023/01/10 04:55:44;;;;;;;0.00;0.00;;;6.20;99.90;;;;;;5022604;28;20712;-72
2023/01/10 04:58:09;;;;;;;0.00;0.00;;;6.20;99.90;;;;;;5021103;28;20041;-72
2023/01/10 05:00:36;;;;;;;0.00;0.00;;;6.20;99.90;;;;;;5016397;28;20770;-72
2023/01/10 05:03:03;;;;;;;;;;;6.10;99.90;;;;;;5028838;28;20024;-73
2023/01/10 05:05:29;;;;;;;0.00;0.00;;;6.20;99.90;;;;;;5018631;28;20000;-73
2023/01/10 05:07:55;;;;;;;;;;;6.20;99.90;;;;;;5025007;28;20025;-73
2023/01/10 05:10:21;;;;;;;0.00;0.00;;;6.10;99.90;;;;;;5021650;28;19917;-73
2023/01/10 05:12:46;;;;;;;0.00;0.00;;;6.20;99.90;;;;;;5023235;28;20052;-72
2023/01/10 05:15:12;;;;;;;0.00;0.00;;;6.10;99.90;;;;;;5019113;28;20033;-72
2023/01/10 05:17:38;;;;;;;0.00;0.00;;;6.30;99.90;;;;;;5022438;28;20035;-72
2023/01/10 05:20:04;;;;;;;0.00;0.00;;;6.20;99.90;;;;;;5021688;28;20032;-72
2023/01/10 05:22:30;;;;;;;0.00;0.00;;;6.10;99.90;;;;;;5022354;28;20093;-72
2023/01/10 05:24:56;;;;;;;0.00;0.00;;;6.20;99.90;;;;;;5022106;28;20151;-73
2023/01/10 05:27:22;;;;;;;0.00;0.00;;;6.20;99.90;;;;;;5014760;28;20038;-73
2023/01/10 05:29:47;;;;;;;0.00;0.00;;;6.20;99.90;;;;;;5017855;28;20030;-73
2023/01/10 05:32:13;;;;;;;0.00;0.00;;;6.20;99.90;;;;;;5024483;28;20666;-72
2023/01/10 05:34:41;;;;;;;0.00;0.00;;;6.20;99.90;;;;;;5020811;28;20026;-72
2023/01/10 05:37:07;;;;;;;0.00;0.00;;;6.20;99.90;;;;;;5015638;28;20041;-73
2023/01/10 05:39:32;;;;;;;0.00;0.00;;;6.20;99.90;;;;;;5019975;28;20025;-72
2023/01/10 05:41:59;;;;;;;0.00;0.00;;;6.20;99.90;;;;;;5020743;28;20071;-72
2023/01/10 05:44:25;;;;;;;0.00;0.00;;;6.20;99.90;;;;;;5021612;28;20013;-73
2023/01/10 05:46:50;;;;;;;0.00;0.00;;;6.20;99.90;;;;;;5013693;28;20091;-72
2023/01/10 05:49:17;;;;;;;0.00;0.00;;;6.10;99.90;;;;;;5023019;28;20025;-72
2023/01/10 05:51:44;;;;;;;0.00;0.00;;;6.20;99.90;;;;;;5015808;28;20112;-73
2023/01/10 05:54:09;;;;;;;0.00;0.00;;;6.20;99.90;;;;;;5020659;28;20037;-72
2023/01/10 05:56:37;;;;;;;0.00;0.00;;;6.30;99.90;;;;;;5017666;28;20013;-73
2023/01/10 05:59:03;;;;;;;0.00;0.00;;;6.30;99.90;;;;;;5016289;28;20025;-73
2023/01/10 06:01:31;;;;;;;0.00;0.00;;;6.30;99.90;;;;;;5029333;28;20137;-73
2023/01/10 06:03:57;;;;;;;0.00;0.00;;;6.30;99.90;;;;;;5022277;28;20295;-73
2023/01/10 06:06:22;;;;;;;0.00;0.00;;;6.30;99.90;;;;;;5027365;28;20033;-73
2023/01/10 06:08:48;;;;;;;0.00;0.00;;;6.30;99.90;;;;;;5023911;28;20025;-73
2023/01/10 06:11:14;;;;;;;0.00;0.00;;;6.30;99.90;;;;;;5015322;28;20517;-72
2023/01/10 06:13:40;;;;;;;0.00;0.00;;;6.40;99.90;;;;;;5027052;28;20604;-72
2023/01/10 06:16:06;;;;;;;0.00;0.00;;;6.70;99.90;;;;;;5024972;28;20029;-72
2023/01/10 06:18:33;;;;;;;0.00;0.00;;;6.90;99.90;;;;;;5018031;28;20087;-72
2023/01/10 06:20:58;;;;;;;;;;;7.00;99.90;;;;;;5020469;28;20025;-72
2023/01/10 06:23:25;;;;;;;0.00;0.00;;;7.10;99.90;;;;;;5020659;28;19905;-73
2023/01/10 06:25:51;;;;;;;0.00;0.00;;;7.10;99.90;;;;;;5034088;28;20017;-73
2023/01/10 06:28:19;;;;;;;0.00;0.00;;;7.10;99.90;;;;;;5026261;28;20041;-72
2023/01/10 06:30:44;;;;;;;0.00;0.00;;;6.90;99.90;;;;;;5022488;28;20025;-72
2023/01/10 06:33:11;;;;;;;0.00;0.00;;;6.80;99.90;;;;;;5029987;28;20500;-73
2023/01/10 06:35:36;;;;;;;0.00;0.00;;;6.60;99.90;;;;;;5025777;28;20021;-72
2023/01/10 06:38:03;;;;;;;0.00;0.00;;;6.50;99.90;;;;;;5032127;28;20924;-72
2023/01/10 06:40:28;;;;;;;0.00;0.00;;;6.50;99.90;;;;;;5019780;28;20033;-72
2023/01/10 06:42:55;;;;;;;0.00;0.00;;;6.50;99.90;;;;;;5028105;28;20036;-72
2023/01/10 06:45:21;;;;;;;;;;;6.50;99.90;;;;;;5024449;28;20021;-72
2023/01/10 06:47:46;;;;;;;0.00;0.00;;;6.50;99.90;;;;;;5023245;28;20430;-72
2023/01/10 06:50:13;;;;;;;0.00;0.00;;;6.40;99.90;;;;;;5026161;28;20084;-72
2023/01/10 06:52:40;;;;;;;0.00;0.00;;;6.40;99.90;;;;;;5021232;28;20033;-72
2023/01/10 06:55:06;;;;;;;0.00;0.00;;;6.40;99.90;;;;;;5035289;28;20494;-72
2023/01/10 06:57:34;;;;;;;0.00;0.00;;;6.40;99.90;;;;;;5019098;28;20540;-72
2023/01/10 07:00:03;;;;;;;0.00;0.00;;;6.40;99.90;;;;;;5024090;28;20025;-72
2023/01/10 07:02:29;;;;;;;0.00;0.00;;;6.40;99.90;;;;;;5023088;28;20025;-72
2023/01/10 07:04:57;;;;;;;0.00;0.00;;;6.40;99.90;;;;;;5022537;28;20683;-72
2023/01/10 07:07:22;;;;;;;0.00;0.00;;;6.30;99.90;;;;;;5020928;28;20705;-73
2023/01/10 07:09:49;;;;;;;0.00;0.00;;;6.30;99.90;;;;;;5023918;28;20111;-72
2023/01/10 07:12:15;;;;;;;0.00;0.00;;;6.30;99.90;;;;;;5038929;28;20040;-72
2023/01/10 07:14:43;;;;;;;0.00;0.00;;;6.30;99.90;;;;;;5030105;28;20037;-72
2023/01/10 07:17:09;;;;;;;0.00;0.00;;;6.40;99.90;;;;;;5026302;28;20036;-72
2023/01/10 07:19:35;;;;;;;0.00;0.00;;;6.40;99.90;;;;;;5022073;28;20017;-72
2023/01/10 07:22:02;;;;;;;0.00;0.00;;;6.40;99.90;;;;;;5029322;28;20032;-72
2023/01/10 07:24:28;;;;;;;0.00;0.00;;;6.40;99.90;;;;;;5020119;28;20056;-72
2023/01/10 07:26:55;;;;;;;0.00;0.00;;;6.40;99.90;;;;;;5023235;28;20091;-72
2023/01/10 07:29:21;;;;;;;0.00;0.00;;;6.40;99.90;;;;;;5017253;28;20498;-72
2023/01/10 07:31:46;;;;;;;0.00;0.00;;;6.40;99.90;;;;;;5024421;28;20037;-72
2023/01/10 07:34:12;;;;;;;0.00;0.00;;;6.40;99.90;;;;;;5025551;28;20455;-72
2023/01/10 07:36:38;;;;;;;0.10;0.10;;;6.50;99.90;;;;;;5022358;28;20132;-72
2023/01/10 07:39:04;;;;;;;0.00;0.00;;;6.50;99.90;;;;;;5020798;28;20275;-72
2023/01/10 07:41:30;;;;;;;0.00;0.00;;;6.50;99.90;;;;;;5023759;28;20017;-72
2023/01/10 07:43:57;;;;;;;0.00;0.00;;;6.50;99.90;;;;;;5020802;28;20021;-73
2023/01/10 07:46:23;;;;;;;0.00;0.00;;;6.50;99.90;;;;;;5017722;28;20034;-72
2023/01/10 07:48:48;;;;;;;0.00;0.00;;;6.50;99.90;;;;;;5017351;28;20127;-72
2023/01/10 07:51:14;;;;;;;0.00;0.00;;;6.50;99.90;;;;;;5019972;28;20026;-72
2023/01/10 07:53:40;;;;;;;0.20;0.20;;;6.60;99.90;;;;;;5021942;28;20109;-72
2023/01/10 07:56:06;;;;;;;0.00;0.00;;;6.60;99.90;;;;;;5024389;28;20026;-72
2023/01/10 07:58:32;;;;;;;0.00;0.00;;;6.60;99.90;;;;;;5021917;28;20026;-72
2023/01/10 08:01:04;;;;;;;0.00;0.00;;;6.60;99.90;;;;;;5016952;28;20084;-73
2023/01/10 08:03:31;;;;;;;0.10;0.10;;;6.60;99.90;;;;;;5019240;28;20074;-72
2023/01/10 08:05:59;;;;;;;0.00;0.00;;;6.60;99.90;;;;;;5016289;28;20041;-73
2023/01/10 08:08:26;;;;;;;0.00;0.00;;;6.70;99.90;;;;;;5014167;28;20363;-72
2023/01/10 08:10:52;;;;;;;0.00;0.00;;;6.70;99.90;;;;;;5018074;28;20827;-72
2023/01/10 08:13:18;;;;;;;0.00;0.00;;;6.60;99.90;;;;;;5024024;28;20021;-72
2023/01/10 08:15:45;;;;;;;0.00;0.00;;;6.60;99.90;;;;;;5022523;28;20045;-73
2023/01/10 08:18:11;;;;;;;0.00;0.00;;;6.70;99.90;;;;;;5013297;28;20158;-72
2023/01/10 08:20:39;;;;;;;0.00;0.00;;;6.70;99.90;;;;;;5019741;28;20578;-72
2023/01/10 08:23:04;;;;;;;0.00;0.00;;;6.70;99.90;;;;;;5020765;28;20096;-72
2023/01/10 08:25:31;;;;;;;0.00;0.00;;;6.80;99.90;;;;;;5023229;28;20095;-72
2023/01/10 08:27:57;;;;;;;;;;;6.80;99.90;;;;;;5019172;28;20018;-73
2023/01/10 08:30:22;;;;;;;0.00;0.00;;;6.80;99.90;;;;;;5020761;28;19939;-72
2023/01/10 08:32:50;;;;;;;0.00;0.00;;;6.80;99.90;;;;;;5018929;28;20026;-73
2023/01/10 08:35:15;;;;;;;0.00;0.00;;;6.90;99.90;;;;;;5028160;28;20182;-72
2023/01/10 08:37:41;;;;;;;0.00;0.00;;;6.90;99.90;;;;;;5021822;28;20304;-72
2023/01/10 08:40:07;;;;;;;0.00;0.00;;;6.90;99.90;;;;;;5019616;28;20040;-72
2023/01/10 08:42:33;;;;;;;0.00;0.00;;;6.90;99.90;;;;;;5020440;28;20029;-72
2023/01/10 08:44:59;;;;;;;0.60;0.60;;;7.00;99.90;;;;;;5017560;28;20018;-71
2023/01/10 08:47:26;;;;;;;0.00;0.00;;;7.00;99.90;;;;;;5045321;28;20104;-72
2023/01/10 08:49:52;;;;;;;;;;;7.10;99.90;;;;;;5017007;28;20038;-72
2023/01/10 08:52:20;;;;;;;0.00;0.00;;;7.10;99.90;;;;;;5020241;28;19909;-72
2023/01/10 08:54:46;;;;;;;0.00;0.00;;;7.10;99.90;;;;;;5030924;28;20036;-72
2023/01/10 08:57:12;;;;;;;0.00;0.00;;;7.20;99.90;;;;;;5015463;28;20549;-72
2023/01/10 08:59:37;;;;;;;0.00;0.00;;;7.10;99.90;;;;;;5021923;28;20439;-73
2023/01/10 09:02:03;;;;;;;0.00;0.00;;;7.10;99.90;;;;;;5033938;28;20101;-72
2023/01/10 09:04:30;;;;;;;0.00;0.00;;;7.20;99.90;;;;;;5023756;28;20025;-72
2023/01/10 09:06:56;;;;;;;0.00;0.00;;;7.30;99.90;;;;;;5017538;28;20024;-73
2023/01/10 09:09:22;;;;;;;0.00;0.00;;;7.30;99.90;;;;;;5018265;28;20060;-72
2023/01/10 09:11:48;;;;;;;0.00;0.00;;;7.30;99.90;;;;;;5017220;28;20021;-72
2023/01/10 09:14:15;;;;;;;0.00;0.00;;;7.30;99.90;;;;;;5023859;28;20032;-72
2023/01/10 09:16:41;;;;;;;0.00;0.00;;;7.40;99.90;;;;;;5017915;28;20260;-72
2023/01/10 09:19:06;;;;;;;0.00;0.00;;;7.40;99.90;;;;;;5012677;28;20037;-72
2023/01/10 09:21:32;;;;;;;0.00;0.00;;;7.50;99.90;;;;;;5024462;28;20264;-73
2023/01/10 09:23:58;;;;;;;0.00;0.00;;;7.50;99.90;;;;;;5019547;28;20021;-72
2023/01/10 09:26:24;;;;;;;0.00;0.00;;;7.50;99.90;;;;;;5045158;28;20044;-73
2023/01/10 09:28:50;;;;;;;0.00;0.00;;;7.60;99.90;;;;;;5023008;28;20029;-72
2023/01/10 09:31:16;;;;;;;;;;;7.60;99.90;;;;;;5023963;28;20037;-72
2023/01/10 09:33:43;;;;;;;0.00;0.00;;;7.70;99.90;;;;;;5017753;28;19968;-72
2023/01/10 09:36:09;;;;;;;;;;;7.60;99.90;;;;;;5028249;28;20031;-72
2023/01/10 09:38:36;;;;;;;0.00;0.00;;;7.70;99.90;;;;;;5023650;28;19913;-72
2023/01/10 09:41:07;;;;;;;0.52;0.30;;;7.70;99.90;;;;;;5030272;28;20018;-73
2023/01/10 09:44:15;;;;;;;0.00;0.00;;;7.80;99.90;;;;;;5026815;28;20072;-73
2023/01/10 09:47:02;;;;;;;0.00;0.00;;;7.80;99.90;;;;;;5027485;28;20029;-72
2023/01/10 09:49:55;;;;;;;0.00;0.00;;;7.90;99.90;;;;;;5019250;28;20029;-73
2023/01/10 09:52:22;;;;;;;0.00;0.00;;;7.80;99.90;;;;;;5026329;28;20030;-72
2023/01/10 09:54:50;;;;;;;0.00;0.00;;;7.80;99.90;;;;;;5039881;28;20060;-72
2023/01/10 09:57:19;;;;;;;0.00;0.00;;;7.80;99.90;;;;;;5024998;28;20493;-72
2023/01/10 09:59:49;;;;;;;0.00;0.00;;;7.80;99.90;;;;;;5024567;28;20073;-72
2023/01/10 10:02:35;;;;;;;0.00;0.00;;;7.90;99.90;;;;;;5023553;28;20321;-72
2023/01/10 10:05:27;;;;;;;0.00;0.00;;;7.90;99.90;;;;;;5022561;28;20021;-72
2023/01/10 10:08:01;;;;;;;0.00;0.00;;;8.10;99.90;;;;;;5021597;28;20079;-72
2023/01/10 10:10:37;;;;;;;0.00;0.00;;;8.10;99.90;;;;;;5044121;28;20027;-72
2023/01/10 10:13:25;;;;;;;0.00;0.00;;;8.10;99.90;;;;;;5028038;28;20027;-72
2023/01/10 10:16:01;;;;;;;0.00;0.00;;;8.20;99.90;;;;;;5032268;28;20021;-73
2023/01/10 10:18:37;;;;;;;0.00;0.00;;;8.30;99.90;;;;;;5023275;28;20117;-72
2023/01/10 10:21:11;;;;;;;0.00;0.00;;;8.20;99.90;;;;;;5023955;28;20036;-72
2023/01/10 10:23:50;;;;;;;0.00;0.00;;;8.20;99.90;;;;;;5028375;28;20029;-72
2023/01/10 10:26:26;;;;;;;0.00;0.00;;;8.20;99.90;;;;;;5024213;28;20124;-72
2023/01/10 10:28:55;;;;;;;0.00;0.00;;;8.30;99.90;;;;;;5030119;28;20025;-72
2023/01/10 10:31:23;;;;;;;0.00;0.00;;;8.20;99.90;;;;;;5033083;28;20028;-72
2023/01/10 10:34:23;;;;;;;0.00;0.00;;;8.40;99.90;;;;;;5025219;28;20062;-72
2023/01/10 10:37:13;;;;;;;0.00;0.00;;;8.40;99.90;;;;;;5024718;28;20025;-73
2023/01/10 10:39:50;;;;;;;0.00;0.00;;;8.40;99.90;;;;;;5026280;28;20590;-73
2023/01/10 10:42:18;;;;;;;0.00;0.00;;;8.60;99.90;;;;;;5031811;28;20017;-73
2023/01/10 10:45:05;;;;;;;0.38;0.13;;;8.70;99.90;;;;;;5029289;28;20057;-72
2023/01/10 10:47:34;;;;;;;0.00;0.00;;;8.80;99.90;;;;;;5025140;28;20025;-72
2023/01/10 10:50:42;;;;;;;0.00;0.00;;;8.70;99.90;;;;;;5016034;28;20039;-72
2023/01/10 10:53:10;;;;;;;0.00;0.00;;;8.80;99.90;;;;;;5021131;28;20033;-73
2023/01/10 10:55:37;;;;;;;0.00;0.00;;;8.90;99.90;;;;;;5016962;28;20041;-72
2023/01/10 10:58:05;;;;;;;0.00;0.00;;;9.10;99.90;;;;;;5023428;28;20025;-73
2023/01/10 11:00:32;;;;;;;0.00;0.00;;;9.20;99.90;;;;;;5025525;28;20083;-72
2023/01/10 11:03:24;;;;;;;0.00;0.00;;;9.40;99.90;;;;;;5030850;28;20016;-73
2023/01/10 11:05:51;;;;;;;0.00;0.00;;;9.60;99.90;;;;;;5030045;28;20124;-72
2023/01/10 11:08:20;;;;;;;0.00;0.00;;;9.70;99.90;;;;;;5029741;28;20026;-72
2023/01/10 11:10:53;;;;;;;0.00;0.00;;;9.80;99.90;;;;;;5017288;28;20082;-72
2023/01/10 11:13:30;;;;;;;0.00;0.00;;;9.80;99.90;;;;;;5022689;28;20049;-73
2023/01/10 11:15:55;;;;;;;0.00;0.00;;;9.80;99.90;;;;;;5039798;28;20201;-72
2023/01/10 11:18:25;;;;;;;0.00;0.00;;;9.80;99.90;;;;;;5025305;28;20593;-73
2023/01/10 11:20:56;;;;;;;0.00;0.00;;;9.80;99.90;;;;;;5018870;28;20432;-73
2023/01/10 11:23:43;;;;;;;0.00;0.00;;;9.80;99.90;;;;;;5026685;28;20128;-73
2023/01/10 11:26:29;;;;;;;0.00;0.00;;;9.80;99.90;;;;;;5019793;28;20786;-72
2023/01/10 11:29:19;;;;;;;0.00;0.00;;;9.80;99.90;;;;;;5024018;28;20501;-72
2023/01/10 11:31:46;;;;;;;0.00;0.00;;;9.70;99.90;;;;;;5041539;28;20056;-72
2023/01/10 11:34:31;;;;;;;0.00;0.00;;;9.70;99.90;;;;;;5022496;28;20048;-72
2023/01/10 11:37:01;;;;;;;0.00;0.00;;;9.70;99.90;;;;;;5032771;28;20108;-73
2023/01/10 11:39:27;;;;;;;0.00;0.00;;;9.70;99.90;;;;;;5020088;28;20017;-71
2023/01/10 11:41:54;;;;;;;;;;;9.80;99.90;;;;;;5018700;28;20026;-72
2023/01/10 11:44:22;;;;;;;0.10;0.10;;;9.90;99.90;;;;;;5021862;28;19905;-72
2023/01/10 11:46:50;;;;;;;0.00;0.00;;;10.10;99.90;;;;;;5018610;28;20855;-72
2023/01/10 11:49:29;;;;;;;0.00;0.00;;;10.30;99.90;;;;;;5023540;28;20014;-73
2023/01/10 11:52:04;;;;;;;0.00;0.00;;;10.40;99.90;;;;;;5024595;28;20009;-73
2023/01/10 11:54:32;;;;;;;0.00;0.00;;;10.40;99.90;;;;;;5021904;28;20021;-73
2023/01/10 11:57:22;;;;;;;0.00;0.00;;;10.30;99.90;;;;;;5028848;28;20382;-73
2023/01/10 12:00:01;;;;;;;0.00;0.00;;;10.40;99.90;;;;;;5023071;28;20740;-73
2023/01/10 12:02:34;;;;;;;0.00;0.00;;;10.30;99.90;;;;;;5024643;28;20040;-73
2023/01/10 12:05:06;;;;;;;0.00;0.00;;;10.20;99.90;;;;;;5019404;28;20042;-73
2023/01/10 12:07:56;;;;;;;0.00;0.00;;;10.10;99.90;;;;;;5017369;28;20100;-73
2023/01/10 12:10:23;;;;;;;0.00;0.00;;;10.20;99.90;;;;;;5019517;28;20013;-73
2023/01/10 12:12:58;;;;;;;0.00;0.00;;;10.30;99.90;;;;;;5022311;28;20371;-73
2023/01/10 12:15:30;;;;;;;0.00;0.00;;;10.50;99.90;;;;;;5038365;28;20445;-73
2023/01/10 12:18:00;;;;;;;0.00;0.00;;;10.40;99.90;;;;;;5017290;28;20021;-73
2023/01/10 12:20:28;;;;;;;0.00;0.00;;;10.50;99.90;;;;;;5019805;28;20045;-73
2023/01/10 12:23:05;;;;;;;0.00;0.00;;;10.60;99.90;;;;;;5026247;28;20044;-73
2023/01/10 12:25:40;;;;;;;0.00;0.00;;;10.80;99.90;;;;;;5019701;28;20411;-74
2023/01/10 12:28:27;;;;;;;0.00;0.00;;;10.80;99.90;;;;;;5027352;28;20021;-73
2023/01/10 12:30:57;;;;;;;0.00;0.00;;;10.80;99.90;;;;;;5021779;28;20033;-73
2023/01/10 12:33:29;;;;;;;0.00;0.00;;;10.80;99.90;;;;;;5020624;28;20115;-73
2023/01/10 12:36:08;;;;;;;0.00;0.00;;;10.90;99.90;;;;;;5018871;28;20013;-72
2023/01/10 12:44:38;;;;;;;;;;;11.10;99.90;;;;;;5032115;28;20095;-73
2023/01/10 12:47:31;;;;;;;0.00;0.00;;;11.10;99.90;;;;;;5037670;28;19905;-73
2023/01/10 12:50:09;;;;;;;0.00;0.00;;;11.10;99.90;;;;;;5043307;28;20078;-73
2023/01/10 12:52:58;;;;;;;0.00;0.00;;;11.10;99.90;;;;;;5020732;28;20017;-73
2023/01/10 12:55:32;;;;;;;0.00;0.00;;;11.00;99.90;;;;;;5019869;28;20128;-73
2023/01/10 12:58:03;;;;;;;0.00;0.00;;;10.80;99.90;;;;;;5021999;28;20104;-73
2023/01/10 13:00:34;;;;;;;0.00;0.00;;;10.90;99.90;;;;;;5019896;28;20029;-73
2023/01/10 13:03:04;;;;;;;0.00;0.00;;;11.00;99.90;;;;;;5021627;28;20382;-73
2023/01/10 13:05:31;;;;;;;0.00;0.00;;;11.20;99.90;;;;;;5022039;28;20021;-73
2023/01/10 13:08:19;;;;;;;0.00;0.00;;;11.10;99.90;;;;;;5016498;28;20021;-68
2023/01/10 13:10:48;;;;;;;0.00;0.00;;;11.00;99.90;;;;;;5017558;28;21569;-73
2023/01/10 13:13:17;;;;;;;0.00;0.00;;;10.80;99.90;;;;;;5020124;28;20147;-73
2023/01/10 13:16:00;;;;;;;0.00;0.00;;;10.70;99.90;;;;;;5023202;28;20163;-73
2023/01/10 13:18:29;;;;;;;0.00;0.00;;;10.50;99.90;;;;;;5027423;28;20074;-73
2023/01/10 13:21:14;;;;;;;0.00;0.00;;;10.30;99.90;;;;;;5016363;28;20017;-73
2023/01/10 13:23:51;;;;;;;0.00;0.00;;;10.20;99.90;;;;;;5042682;28;20870;-73
2023/01/10 13:26:17;;;;;;;;;;;9.90;99.90;;;;;;5019723;28;20053;-73
2023/01/10 13:28:54;;;;;;;0.00;0.00;;;9.80;99.90;;;;;;5019322;28;19966;-73
2023/01/10 13:31:49;;;;;;;0.00;0.00;;;9.60;99.90;;;;;;5030229;28;20166;-73